createdAt,value
2019-05-13T00:00:33.876Z,45.20
2019-05-13T00:02:59.338Z,45.20
2019-05-13T00:05:25.395Z,45.10
2019-05-13T00:07:51.359Z,45.10
2019-05-13T00:10:17.319Z,45.10
2019-05-13T00:12:44.504Z,45.20
2019-05-13T00:15:11.056Z,45.20
2019-05-13T00:17:37.032Z,45.20
2019-05-13T00:20:03.945Z,45.10
2019-05-13T00:22:30.241Z,45.20
2019-05-13T00:24:56.209Z,45.20
2019-05-13T00:27:23.484Z,45.30
2019-05-13T00:29:49.638Z,45.20
2019-05-13T00:32:15.588Z,45.30
2019-05-13T00:34:41.552Z,45.30
2019-05-13T00:37:11.413Z,45.30
2019-05-13T00:39:35.471Z,45.20
2019-05-13T00:42:03.758Z,45.30
2019-05-13T00:44:29.383Z,45.20
2019-05-13T00:46:55.321Z,45.20
2019-05-13T00:49:21.284Z,45.20
2019-05-13T00:51:47.260Z,45.20
2019-05-13T00:54:13.443Z,45.20
2019-05-13T00:56:39.565Z,45.20
2019-05-13T00:59:05.546Z,45.20
2019-05-13T01:01:33.488Z,45.20
2019-05-13T01:03:59.441Z,45.20
2019-05-13T01:06:25.369Z,45.30
2019-05-13T01:08:53.517Z,45.20
2019-05-13T01:11:19.189Z,45.20
2019-05-13T01:13:45.163Z,45.20
2019-05-13T01:16:11.104Z,45.20
2019-05-13T01:18:37.088Z,45.20
2019-05-13T01:21:04.464Z,45.20
2019-05-13T01:23:30.712Z,45.20
2019-05-13T01:25:56.671Z,44.80
2019-05-13T01:28:23.906Z,45.30
2019-05-13T01:30:50.219Z,45.20
2019-05-13T01:33:16.157Z,45.30
2019-05-13T01:35:44.325Z,45.20
2019-05-13T01:38:09.953Z,45.20
2019-05-13T01:40:35.942Z,45.30
2019-05-13T01:43:03.597Z,45.20
2019-05-13T01:45:29.778Z,45.20
2019-05-13T01:47:55.720Z,45.30
2019-05-13T01:50:24.027Z,45.90
2019-05-13T01:52:49.549Z,45.20
2019-05-13T01:55:15.520Z,45.30
2019-05-13T01:57:41.484Z,45.30
2019-05-13T02:00:07.433Z,45.20
2019-05-13T02:02:33.765Z,45.30
2019-05-13T02:04:59.839Z,45.90
2019-05-13T02:07:25.793Z,45.20
2019-05-13T02:09:53.383Z,45.20
2019-05-13T02:12:19.575Z,45.30
2019-05-13T02:14:45.554Z,45.30
2019-05-13T02:17:11.603Z,45.20
2019-05-13T02:19:37.679Z,45.20
2019-05-13T02:22:04.192Z,45.10
2019-05-13T02:24:30.389Z,45.20
2019-05-13T02:26:56.347Z,45.20
2019-05-13T02:29:24.280Z,45.20
2019-05-13T02:31:55.130Z,45.10
2019-05-13T02:34:18.009Z,45.20
2019-05-13T02:36:44.143Z,45.30
2019-05-13T02:39:12.949Z,45.20
2019-05-13T02:41:38.098Z,45.20
2019-05-13T02:44:04.190Z,45.20
2019-05-13T02:46:33.423Z,45.20
2019-05-13T02:48:58.078Z,45.20
2019-05-13T02:51:24.140Z,45.00
2019-05-13T02:53:52.333Z,45.20
2019-05-13T02:56:17.945Z,45.20
2019-05-13T02:58:43.910Z,45.20
2019-05-13T03:01:12.568Z,45.30
2019-05-13T03:03:37.790Z,45.40
2019-05-13T03:06:03.728Z,45.40
2019-05-13T03:08:41.013Z,45.30
2019-05-13T03:10:57.544Z,45.40
2019-05-13T03:13:24.137Z,45.30
2019-05-13T03:15:55.093Z,45.50
2019-05-13T03:18:22.596Z,45.30
2019-05-13T03:20:48.785Z,45.30
2019-05-13T03:23:14.742Z,45.20
2019-05-13T03:25:42.945Z,45.30
2019-05-13T03:28:08.554Z,45.20
2019-05-13T03:30:35.683Z,45.20
2019-05-13T03:33:10.239Z,45.20
2019-05-13T03:35:35.871Z,45.20
2019-05-13T03:37:57.678Z,45.20
2019-05-13T03:40:23.645Z,45.20
2019-05-13T03:42:53.007Z,45.30
2019-05-13T03:45:17.461Z,45.20
2019-05-13T03:47:43.520Z,45.10
2019-05-13T03:50:12.780Z,45.10
2019-05-13T03:52:37.464Z,45.10
2019-05-13T03:55:03.633Z,45.10
2019-05-13T03:57:33.420Z,45.10
2019-05-13T03:59:57.524Z,45.10
2019-05-13T04:02:23.461Z,45.00
2019-05-13T04:04:52.841Z,45.10
2019-05-13T04:07:17.266Z,45.00
2019-05-13T04:09:43.261Z,45.00
2019-05-13T04:12:09.296Z,45.00
2019-05-13T04:14:35.264Z,45.00
2019-05-13T04:17:02.976Z,45.30
2019-05-13T04:19:29.059Z,45.10
2019-05-13T04:21:55.008Z,45.10
2019-05-13T04:24:22.902Z,45.20
2019-05-13T04:26:48.810Z,45.20
2019-05-13T04:29:14.871Z,45.10
2019-05-13T04:31:42.375Z,45.10
2019-05-13T04:34:12.149Z,45.10
2019-05-13T04:36:36.578Z,45.20
2019-05-13T04:39:04.346Z,45.20
2019-05-13T04:41:32.981Z,45.30
2019-05-13T04:43:58.232Z,45.30
2019-05-13T04:46:24.186Z,45.50
2019-05-13T04:48:53.092Z,45.60
2019-05-13T04:51:18.032Z,45.50
2019-05-13T04:53:44.073Z,45.80
2019-05-13T04:56:13.283Z,45.90
2019-05-13T04:58:38.083Z,45.80
2019-05-13T05:01:09.103Z,45.90
2019-05-13T05:03:33.483Z,46.00
2019-05-13T05:06:02.996Z,46.20
2019-05-13T05:08:28.053Z,46.10
2019-05-13T05:10:54.227Z,46.00
2019-05-13T05:13:22.139Z,45.90
2019-05-13T05:15:48.158Z,45.90
2019-05-13T05:18:14.146Z,46.00
2019-05-13T05:20:41.596Z,46.20
2019-05-13T05:23:07.792Z,46.20
2019-05-13T05:25:33.843Z,46.20
2019-05-13T05:28:01.968Z,46.40
2019-05-13T05:30:27.641Z,46.90
2019-05-13T05:32:53.572Z,47.10
2019-05-13T05:35:19.549Z,47.30
2019-05-13T05:37:47.532Z,47.30
2019-05-13T05:40:27.840Z,47.40
2019-05-13T05:42:41.397Z,47.90
2019-05-13T05:45:07.370Z,48.00
2019-05-13T05:47:33.347Z,47.90
2019-05-13T05:49:59.308Z,48.10
2019-05-13T05:52:25.282Z,48.10
2019-05-13T05:54:52.563Z,48.00
2019-05-13T05:57:18.631Z,48.40
2019-05-13T05:59:44.700Z,48.30
2019-05-13T06:02:12.168Z,48.10
2019-05-13T06:04:38.422Z,48.50
2019-05-13T06:07:04.402Z,49.80
2019-05-13T06:09:32.252Z,49.40
2019-05-13T06:11:58.225Z,49.20
2019-05-13T06:14:24.263Z,48.60
2019-05-13T06:16:51.876Z,48.00
2019-05-13T06:19:18.174Z,47.70
2019-05-13T06:21:44.162Z,47.60
2019-05-13T06:24:11.675Z,47.40
2019-05-13T06:26:37.881Z,47.20
2019-05-13T06:29:03.834Z,47.00
2019-05-13T06:31:32.084Z,46.80
2019-05-13T06:33:57.669Z,46.70
2019-05-13T06:36:23.628Z,46.60
2019-05-13T06:38:51.347Z,46.40
2019-05-13T06:41:17.454Z,46.30
2019-05-13T06:43:43.503Z,46.20
2019-05-13T06:46:12.243Z,46.10
2019-05-13T06:48:37.831Z,45.90
2019-05-13T06:51:03.910Z,45.80
2019-05-13T06:53:32.070Z,45.80
2019-05-13T06:55:57.847Z,45.60
2019-05-13T06:58:23.840Z,45.50
2019-05-13T07:00:51.600Z,45.30
2019-05-13T07:03:17.650Z,44.90
2019-05-13T07:05:43.597Z,44.20
2019-05-13T07:08:11.797Z,43.70
2019-05-13T07:10:37.453Z,43.00
2019-05-13T07:13:03.413Z,42.30
2019-05-13T07:15:31.423Z,41.50
2019-05-13T07:17:57.256Z,41.20
2019-05-13T07:20:23.219Z,40.90
2019-05-13T07:22:49.183Z,40.20
2019-05-13T07:25:15.132Z,39.70
2019-05-13T07:27:42.438Z,39.70
2019-05-13T07:30:11.123Z,39.70
2019-05-13T07:32:36.509Z,39.70
2019-05-13T07:35:03.856Z,39.80
2019-05-13T07:37:31.823Z,39.70
2019-05-13T07:39:57.969Z,39.70
2019-05-13T07:42:23.937Z,39.80
2019-05-13T07:44:52.167Z,40.00
2019-05-13T07:47:17.868Z,40.10
2019-05-13T07:49:43.934Z,40.30
2019-05-13T07:52:11.960Z,40.50
2019-05-13T07:54:37.739Z,40.10
2019-05-13T07:57:03.703Z,40.60
2019-05-13T07:59:31.893Z,40.80
2019-05-13T08:01:57.627Z,40.80
2019-05-13T08:04:26.695Z,41.50
2019-05-13T08:06:52.437Z,41.00
2019-05-13T08:09:18.632Z,41.10
2019-05-13T08:12:00.502Z,41.30
2019-05-13T08:14:13.255Z,42.00
2019-05-13T08:16:39.220Z,41.30
2019-05-13T08:19:06.405Z,41.40
2019-05-13T08:21:34.189Z,41.50
2019-05-13T08:24:02.696Z,41.50
2019-05-13T08:26:28.006Z,41.50
2019-05-13T08:29:01.501Z,41.50
2019-05-13T08:31:21.858Z,41.60
2019-05-13T08:33:47.927Z,41.70
2019-05-13T08:36:13.909Z,41.60
2019-05-13T08:38:42.962Z,41.70
2019-05-13T08:41:09.853Z,41.80
2019-05-13T08:43:35.839Z,41.80
2019-05-13T08:46:02.448Z,42.40
2019-05-13T08:48:28.490Z,41.80
2019-05-13T08:50:54.431Z,41.80
2019-05-13T08:53:21.232Z,41.80
2019-05-13T08:55:47.353Z,41.70
2019-05-13T08:58:13.322Z,41.80
2019-05-13T09:00:41.323Z,42.10
2019-05-13T09:03:07.117Z,41.70
2019-05-13T09:05:33.084Z,41.70
2019-05-13T09:08:01.046Z,41.80
2019-05-13T09:10:26.903Z,41.80
2019-05-13T09:12:52.879Z,41.70
2019-05-13T09:15:18.948Z,41.70
2019-05-13T09:17:44.917Z,41.70
2019-05-13T09:20:11.509Z,41.80
2019-05-13T09:22:37.753Z,42.40
2019-05-13T09:25:03.698Z,41.80
2019-05-13T09:27:31.815Z,41.80
2019-05-13T09:29:57.515Z,41.70
2019-05-13T09:32:23.574Z,41.70
2019-05-13T09:34:52.224Z,41.80
2019-05-13T09:37:17.519Z,41.70
2019-05-13T09:39:43.480Z,41.80
2019-05-13T09:42:09.447Z,41.80
2019-05-13T09:44:35.414Z,41.90
2019-05-13T09:47:02.488Z,41.80
2019-05-13T09:49:29.006Z,41.70
2019-05-13T09:51:54.958Z,41.80
2019-05-13T09:54:22.295Z,41.80
2019-05-13T09:56:48.460Z,41.70
2019-05-13T09:59:14.426Z,41.70
2019-05-13T10:01:42.537Z,41.80
2019-05-13T10:04:08.264Z,41.70
2019-05-13T10:06:34.263Z,41.80
2019-05-13T10:09:02.271Z,41.70
2019-05-13T10:11:28.174Z,41.80
2019-05-13T10:13:54.548Z,41.80
2019-05-13T10:16:22.090Z,41.80
2019-05-13T10:18:48.270Z,41.90
2019-05-13T10:21:14.306Z,41.90
2019-05-13T10:23:41.902Z,42.00
2019-05-13T10:26:08.763Z,42.00
2019-05-13T10:28:34.705Z,42.10
2019-05-13T10:31:01.086Z,42.10
2019-05-13T10:33:27.146Z,42.10
2019-05-13T10:35:53.208Z,42.00
2019-05-13T10:38:22.067Z,42.00
2019-05-13T10:40:47.148Z,42.20
2019-05-13T10:43:29.930Z,42.30
2019-05-13T10:45:41.645Z,42.10
2019-05-13T10:48:10.493Z,41.20
2019-05-13T10:50:35.786Z,41.00
2019-05-13T10:53:02.721Z,41.10
2019-05-13T10:55:28.916Z,41.30
2019-05-13T10:57:54.948Z,41.40
2019-05-13T11:00:22.898Z,41.50
2019-05-13T11:02:48.783Z,41.60
2019-05-13T11:05:14.775Z,41.70
2019-05-13T11:07:42.064Z,41.80
2019-05-13T11:10:08.471Z,41.70
2019-05-13T11:12:34.529Z,41.80
2019-05-13T11:15:02.488Z,41.90
2019-05-13T11:17:31.148Z,42.00
2019-05-13T11:19:56.181Z,42.00
2019-05-13T11:22:22.616Z,42.00
2019-05-13T11:24:48.706Z,41.80
2019-05-13T11:27:14.650Z,41.90
2019-05-13T11:29:41.471Z,42.00
2019-05-13T11:32:07.652Z,42.00
2019-05-13T11:34:33.627Z,42.00
2019-05-13T11:37:03.276Z,42.00
2019-05-13T11:39:27.545Z,42.10
2019-05-13T11:41:53.612Z,42.70
2019-05-13T11:44:22.535Z,42.10
2019-05-13T11:46:47.526Z,42.00
2019-05-13T11:49:13.613Z,42.10
2019-05-13T11:51:41.843Z,42.20
2019-05-13T11:54:07.880Z,42.20
2019-05-13T11:56:33.971Z,42.40
2019-05-13T11:59:00.043Z,42.60
2019-05-13T12:01:26.003Z,42.30
2019-05-13T12:03:53.190Z,42.40
2019-05-13T12:06:22.839Z,42.40
2019-05-13T12:08:52.050Z,42.80
2019-05-13T12:11:15.377Z,42.60
2019-05-13T12:13:42.623Z,42.60
2019-05-13T12:16:08.845Z,42.60
2019-05-13T12:18:41.413Z,42.60
2019-05-13T12:21:03.705Z,42.70
2019-05-13T12:23:30.247Z,42.70
2019-05-13T12:25:56.365Z,42.90
2019-05-13T12:28:22.397Z,43.50
2019-05-13T12:30:48.760Z,42.90
2019-05-13T12:33:14.834Z,42.90
2019-05-13T12:35:40.904Z,42.90
2019-05-13T12:38:06.965Z,42.90
2019-05-13T12:40:33.813Z,43.10
2019-05-13T12:43:02.051Z,43.00
2019-05-13T12:45:28.133Z,43.00
2019-05-13T12:47:54.097Z,43.40
2019-05-13T12:50:23.689Z,42.90
2019-05-13T12:52:48.309Z,42.60
2019-05-13T12:55:14.338Z,43.60
2019-05-13T12:57:40.415Z,42.80
2019-05-13T13:00:06.574Z,42.30
2019-05-13T13:02:32.765Z,42.00
2019-05-13T13:05:10.695Z,41.90
2019-05-13T13:07:26.665Z,41.60
2019-05-13T13:09:53.887Z,41.30
2019-05-13T13:12:32.922Z,41.00
2019-05-13T13:14:47.960Z,40.70
2019-05-13T13:17:14.017Z,40.60
2019-05-13T13:19:41.796Z,40.70
2019-05-13T13:22:08.256Z,40.50
2019-05-13T13:24:34.426Z,40.40
2019-05-13T13:27:00.497Z,40.40
2019-05-13T13:29:26.571Z,40.40
2019-05-13T13:31:55.525Z,40.30
2019-05-13T13:34:25.328Z,40.20
2019-05-13T13:36:48.326Z,40.10
2019-05-13T13:39:15.269Z,40.00
2019-05-13T13:41:43.681Z,39.90
2019-05-13T13:44:12.339Z,39.90
2019-05-13T13:46:44.605Z,39.70
2019-05-13T13:49:05.178Z,39.40
2019-05-13T13:51:34.046Z,39.30
2019-05-13T13:53:59.224Z,39.20
2019-05-13T13:56:25.714Z,39.10
2019-05-13T13:58:51.896Z,39.10
2019-05-13T14:01:20.380Z,39.70
2019-05-13T14:03:46.399Z,38.70
2019-05-13T14:06:12.844Z,38.60
2019-05-13T14:08:41.363Z,38.60
2019-05-13T14:11:06.798Z,38.40
2019-05-13T14:13:32.769Z,38.30
2019-05-13T14:15:58.744Z,38.10
2019-05-13T14:18:26.963Z,38.00
2019-05-13T14:20:53.101Z,38.20
2019-05-13T14:23:21.292Z,38.20
2019-05-13T14:25:47.078Z,38.10
2019-05-13T14:28:17.325Z,38.10
2019-05-13T14:30:42.204Z,38.00
2019-05-13T14:33:08.652Z,38.10
2019-05-13T14:35:34.684Z,38.00
2019-05-13T14:38:02.478Z,37.90
2019-05-13T14:40:28.511Z,38.10
2019-05-13T14:42:54.563Z,38.30
2019-05-13T14:45:23.569Z,38.40
2019-05-13T14:47:48.396Z,38.40
2019-05-13T14:50:14.481Z,38.40
2019-05-13T14:52:41.633Z,38.40
2019-05-13T14:55:07.864Z,38.00
2019-05-13T14:57:33.851Z,38.50
2019-05-13T15:00:02.208Z,38.40
2019-05-13T15:02:27.673Z,38.50
2019-05-13T15:04:53.871Z,38.50
2019-05-13T15:07:21.623Z,38.10
2019-05-13T15:09:47.822Z,38.00
2019-05-13T15:12:13.888Z,38.20
2019-05-13T15:14:42.710Z,38.20
2019-05-13T15:17:07.936Z,38.40
2019-05-13T15:19:34.008Z,38.30
2019-05-13T15:21:59.959Z,38.30
2019-05-13T15:24:26.348Z,38.20
2019-05-13T15:26:52.409Z,38.30
2019-05-13T15:29:18.468Z,38.50
2019-05-13T15:31:44.437Z,38.50
2019-05-13T15:34:10.498Z,38.40
2019-05-13T15:36:36.466Z,38.50
2019-05-13T15:39:04.242Z,38.40
2019-05-13T15:41:30.337Z,37.60
2019-05-13T15:43:56.608Z,37.30
2019-05-13T15:46:22.701Z,36.60
2019-05-13T15:48:51.194Z,36.10
2019-05-13T15:51:16.647Z,35.50
2019-05-13T15:53:43.775Z,35.30
2019-05-13T15:56:12.382Z,34.50
2019-05-13T15:58:41.064Z,34.20
2019-05-13T16:01:05.931Z,33.90
2019-05-13T16:03:31.885Z,33.50
2019-05-13T16:05:57.857Z,33.00
2019-05-13T16:08:23.913Z,32.80
2019-05-13T16:10:53.215Z,32.70
2019-05-13T16:13:17.767Z,32.80
2019-05-13T16:15:43.801Z,32.30
2019-05-13T16:18:11.712Z,32.60
2019-05-13T16:20:37.665Z,32.10
2019-05-13T16:23:03.693Z,32.00
2019-05-13T16:25:31.783Z,31.50
2019-05-13T16:27:57.493Z,31.30
2019-05-13T16:30:23.442Z,31.20
2019-05-13T16:32:51.924Z,31.00
2019-05-13T16:35:17.265Z,30.70
2019-05-13T16:37:43.411Z,30.30
2019-05-13T16:40:11.645Z,29.80
2019-05-13T16:42:37.335Z,30.10
2019-05-13T16:45:03.385Z,29.80
2019-05-13T16:47:31.750Z,29.70
2019-05-13T16:49:57.283Z,29.50
2019-05-13T16:52:23.317Z,29.40
2019-05-13T16:54:49.323Z,29.60
2019-05-13T16:57:15.287Z,29.90
2019-05-13T16:59:41.241Z,29.90
2019-05-13T17:02:07.300Z,30.20
2019-05-13T17:04:33.507Z,30.60
2019-05-13T17:07:01.502Z,30.90
2019-05-13T17:09:27.352Z,31.10
2019-05-13T17:11:53.342Z,31.50
2019-05-13T17:14:21.266Z,31.60
2019-05-13T17:16:47.281Z,31.80
2019-05-13T17:19:13.330Z,31.80
2019-05-13T17:21:41.097Z,31.90
2019-05-13T17:24:07.158Z,32.00
2019-05-13T17:26:33.118Z,32.20
2019-05-13T17:29:01.273Z,32.90
2019-05-13T17:31:26.980Z,32.70
2019-05-13T17:33:53.051Z,33.10
2019-05-13T17:36:19.003Z,33.50
2019-05-13T17:38:44.955Z,33.90
2019-05-13T17:41:12.227Z,34.20
2019-05-13T17:43:38.487Z,34.60
2019-05-13T17:46:04.458Z,35.60
2019-05-13T17:48:32.941Z,35.20
2019-05-13T17:50:58.406Z,35.60
2019-05-13T17:53:26.610Z,35.90
2019-05-13T17:55:52.588Z,36.10
2019-05-13T17:58:18.535Z,36.20
2019-05-13T18:00:44.508Z,36.50
2019-05-13T18:03:11.368Z,36.50
2019-05-13T18:05:37.641Z,36.70
2019-05-13T18:08:03.638Z,36.70
2019-05-13T18:10:31.623Z,36.90
2019-05-13T18:12:57.575Z,37.10
2019-05-13T18:15:23.575Z,37.30
2019-05-13T18:17:49.586Z,37.50
2019-05-13T18:20:15.538Z,37.50
2019-05-13T18:22:42.159Z,37.50
2019-05-13T18:25:08.274Z,37.70
2019-05-13T18:27:34.237Z,37.90
2019-05-13T18:30:02.168Z,38.10
2019-05-13T18:32:28.036Z,38.30
2019-05-13T18:34:54.001Z,38.40
2019-05-13T18:37:22.006Z,38.60
2019-05-13T18:39:47.824Z,38.80
2019-05-13T18:42:13.801Z,38.90
2019-05-13T18:44:41.991Z,39.00
2019-05-13T18:47:07.644Z,39.40
2019-05-13T18:49:33.612Z,39.30
2019-05-13T18:51:59.682Z,39.40
2019-05-13T18:54:25.659Z,39.50
2019-05-13T18:56:52.193Z,39.50
2019-05-13T18:59:18.394Z,39.70
2019-05-13T19:01:44.452Z,39.70
2019-05-13T19:04:11.419Z,39.90
2019-05-13T19:06:37.720Z,39.90
2019-05-13T19:09:04.387Z,40.00
2019-05-13T19:11:31.695Z,40.10
2019-05-13T19:13:57.904Z,40.00
2019-05-13T19:16:23.908Z,40.70
2019-05-13T19:18:49.862Z,40.10
2019-05-13T19:21:15.817Z,40.10
2019-05-13T19:23:41.990Z,40.20
2019-05-13T19:26:08.178Z,40.20
2019-05-13T19:28:34.173Z,40.30
2019-05-13T19:31:02.129Z,40.50
2019-05-13T19:33:28.116Z,40.60
2019-05-13T19:35:54.172Z,40.60
2019-05-13T19:38:21.161Z,40.40
2019-05-13T19:40:47.289Z,40.10
2019-05-13T19:43:13.369Z,39.90
2019-05-13T19:45:41.442Z,39.50
2019-05-13T19:48:07.186Z,39.30
2019-05-13T19:50:33.251Z,39.20
2019-05-13T19:53:01.240Z,39.00
2019-05-13T19:55:27.169Z,39.00
2019-05-13T19:57:53.132Z,38.80
2019-05-13T20:00:21.094Z,38.70
2019-05-13T20:02:47.089Z,38.80
2019-05-13T20:05:13.156Z,38.70
2019-05-13T20:07:41.740Z,38.80
2019-05-13T20:10:07.103Z,38.90
2019-05-13T20:12:33.057Z,39.00
2019-05-13T20:15:01.238Z,39.20
2019-05-13T20:17:26.905Z,39.40
2019-05-13T20:19:53.621Z,39.50
2019-05-13T20:22:19.836Z,39.60
2019-05-13T20:24:45.795Z,39.70
2019-05-13T20:27:12.089Z,39.70
2019-05-13T20:29:38.265Z,39.70
2019-05-13T20:32:04.349Z,39.70
2019-05-13T20:34:31.717Z,39.90
2019-05-13T20:36:58.097Z,39.90
2019-05-13T20:39:24.065Z,40.00
2019-05-13T20:41:55.461Z,40.10
2019-05-13T20:44:17.902Z,40.00
2019-05-13T20:46:43.976Z,40.70
2019-05-13T20:49:12.009Z,40.10
2019-05-13T20:51:37.827Z,40.10
2019-05-13T20:54:03.798Z,40.20
2019-05-13T20:56:31.805Z,40.10
2019-05-13T20:58:57.696Z,40.10
2019-05-13T21:01:23.665Z,40.30
2019-05-13T21:03:51.565Z,40.10
2019-05-13T21:06:17.493Z,40.10
2019-05-13T21:08:43.471Z,40.10
2019-05-13T21:11:11.470Z,40.10
2019-05-13T21:13:37.371Z,40.10
2019-05-13T21:16:23.322Z,40.30
2019-05-13T21:18:49.307Z,40.40
2019-05-13T21:21:15.397Z,40.50
2019-05-13T21:23:41.844Z,40.50
2019-05-13T21:26:08.061Z,40.60
2019-05-13T21:28:34.167Z,40.40
2019-05-13T21:31:02.138Z,40.50
2019-05-13T21:33:28.095Z,40.50
2019-05-13T21:35:54.059Z,40.70
2019-05-13T21:38:22.219Z,40.70
2019-05-13T21:40:47.954Z,40.70
2019-05-13T21:43:13.929Z,40.80
2019-05-13T21:45:41.521Z,40.70
2019-05-13T21:48:07.658Z,40.80
2019-05-13T21:50:37.231Z,40.80
2019-05-13T21:53:02.018Z,40.80
2019-05-13T21:55:28.300Z,40.80
2019-05-13T21:57:54.279Z,41.00
2019-05-13T22:00:23.729Z,41.00
2019-05-13T22:02:51.608Z,40.90
2019-05-13T22:05:17.744Z,41.10
2019-05-13T22:07:43.831Z,41.00
2019-05-13T22:10:09.800Z,41.10
2019-05-13T22:12:35.887Z,41.20
2019-05-13T22:15:02.061Z,41.20
2019-05-13T22:17:28.222Z,41.20
2019-05-13T22:19:54.303Z,41.10
2019-05-13T22:22:22.102Z,41.20
2019-05-13T22:24:51.113Z,41.20
2019-05-13T22:27:16.976Z,41.20
2019-05-13T22:29:42.928Z,41.20
2019-05-13T22:32:11.143Z,41.20
2019-05-13T22:34:36.763Z,41.10
2019-05-13T22:37:02.840Z,41.20
2019-05-13T22:39:32.193Z,41.20
2019-05-13T22:41:56.724Z,41.20
2019-05-13T22:44:22.706Z,41.70
2019-05-13T22:46:48.771Z,41.20
2019-05-13T22:49:14.836Z,41.10
2019-05-13T22:51:41.743Z,41.20
2019-05-13T22:54:07.802Z,39.80
2019-05-13T22:56:33.878Z,41.20
2019-05-13T22:59:01.948Z,41.20
2019-05-13T23:01:27.728Z,41.30
2019-05-13T23:03:53.793Z,41.30
2019-05-13T23:06:21.630Z,41.30
2019-05-13T23:08:47.707Z,41.20
2019-05-13T23:11:13.700Z,41.20
2019-05-13T23:13:41.974Z,41.30
2019-05-13T23:16:07.636Z,41.20
2019-05-13T23:18:33.594Z,41.20
2019-05-13T23:20:59.568Z,41.20
2019-05-13T23:23:25.556Z,41.30
2019-05-13T23:25:51.566Z,41.30
2019-05-13T23:28:17.587Z,41.20
2019-05-13T23:30:43.556Z,41.20
2019-05-13T23:33:11.634Z,41.30
2019-05-13T23:35:37.510Z,41.30
2019-05-13T23:38:03.554Z,41.30
2019-05-13T23:40:31.489Z,41.20
2019-05-13T23:42:57.481Z,41.20
2019-05-13T23:45:23.505Z,41.50
2019-05-13T23:47:51.018Z,41.20
2019-05-13T23:50:17.134Z,41.30
2019-05-13T23:52:43.098Z,41.30
2019-05-13T23:55:10.878Z,41.40
2019-05-13T23:57:36.945Z,41.50
